الصفحة الرئيسية
METAR-TAF:

METAR-TAF

مطار :

Phillip Goldston

Belize City, بليز

دائرة عرض: 17-32N, خط طول: 088-18W, ارتفاع: 5 متر

مراقبة الطقس الحالي

تاريخ ووقت الإصدار 17 دقيقة قبل الساعة 12:00UTC
ريح 10 عقدة من الشمال الغربي
درجة الحرارة 21°درجة مئوية
الرطوبة 88%
ضغط 1019 hPa
الرؤية 10 كم أو أكثر
غيوم متفرقة على ارتفاع 1500 قدم
غيوم مفككة على ارتفاع 4000 قدم

METAR: MZBZ 151200Z 32010KT 9999 SCT015 BKN040 21/19 A3011 Q1019 NOSIG

زمن: 06:17 (12:17 UTC)

توقعات

تاريخ ووقت الإصدار 1ساعة و 17 دقيقة قبل الساعة 11:00UTC
التوقعات صالحة من15 الساعة 12 UTC إلى 16 الساعة 12 UTC
ريح 12 عقدة من الشمال/الشمال الغربي تتزايد حتى 22 عقدة
الرؤية 10 كم أو أكثر
غيوم متفرقة على ارتفاع 2200 قدم
غيوم مفككة على ارتفاع 4000 قدم
نظرية الاحتمالات 30% :
مؤقت
من 15 الساعة 12 UTC إلى 15 الساعة 15 UTC
الرؤية: 5000 متر
غيوم مفككة على ارتفاع 3500 قدم
مطر

TAF: MZBZ 151100Z 1512/1612 33012G22KT 9999 SCT022 BKN040 PROB30 TEMPO 1512/1515 5000 RA BKN035

أرصاد الطقس والتوقعات من أكثر من 4000 مطار (تقارير الطقس للمطار METAR والتنبؤ بالطقس بالمطارTAF).

المحطات المتاحة هي النقط الصفراء والحمراء على الخريطة.

حرك المؤشر فوق النقطة لمعرفة اسم المحطة.

ثم انقر لمعرفة أرصاد وتوقعات الطقس.

لتغيير الخارطة: اضغط على الأزرار الخضراء مع رمز الصليب الأسود للتكبير. على الزر الأخضر مع شرطة للتصغير، أو على الأسهم الخضراء للخرائط المجاورة.


METAR-TAF: